sensor_id;sensor_type;location;lat;lon;timestamp;pressure;altitude;pressure_sealevel;temperature;humidity
37832;BME280;23671;38.090;-122.570;2022-08-03T00:02:09;101381.44;;;31.85;34.14
37832;BME280;23671;38.090;-122.570;2022-08-03T00:04:36;101384.41;;;31.84;34.41
37832;BME280;23671;38.090;-122.570;2022-08-03T00:07:03;101383.47;;;31.78;34.17
37832;BME280;23671;38.090;-122.570;2022-08-03T00:09:30;101396.09;;;31.79;34.14
37832;BME280;23671;38.090;-122.570;2022-08-03T00:11:57;101389.19;;;31.77;34.12
37832;BME280;23671;38.090;-122.570;2022-08-03T00:14:24;101376.63;;;31.76;34.13
37832;BME280;23671;38.090;-122.570;2022-08-03T00:16:51;101374.38;;;31.73;34.34
37832;BME280;23671;38.090;-122.570;2022-08-03T00:19:18;101375.22;;;31.73;34.13
37832;BME280;23671;38.090;-122.570;2022-08-03T00:21:46;101370.00;;;31.72;34.34
37832;BME280;23671;38.090;-122.570;2022-08-03T00:24:12;101365.34;;;31.72;34.51
37832;BME280;23671;38.090;-122.570;2022-08-03T00:26:39;101372.13;;;31.70;34.82
37832;BME280;23671;38.090;-122.570;2022-08-03T00:29:07;101364.78;;;31.70;35.04
37832;BME280;23671;38.090;-122.570;2022-08-03T00:31:34;101367.72;;;31.69;34.54
37832;BME280;23671;38.090;-122.570;2022-08-03T00:34:00;101363.34;;;31.68;34.64
37832;BME280;23671;38.090;-122.570;2022-08-03T00:36:28;101366.09;;;31.68;34.55
37832;BME280;23671;38.090;-122.570;2022-08-03T00:38:55;101366.34;;;31.66;34.54
37832;BME280;23671;38.090;-122.570;2022-08-03T00:41:22;101368.47;;;31.64;34.38
37832;BME280;23671;38.090;-122.570;2022-08-03T00:43:49;101370.84;;;31.61;34.58
37832;BME280;23671;38.090;-122.570;2022-08-03T00:46:17;101368.03;;;31.56;34.26
37832;BME280;23671;38.090;-122.570;2022-08-03T00:48:44;101385.50;;;31.55;34.27
37832;BME280;23671;38.090;-122.570;2022-08-03T00:51:29;101388.94;;;31.50;34.00
37832;BME280;23671;38.090;-122.570;2022-08-03T00:53:57;101396.81;;;31.47;33.88
37832;BME280;23671;38.090;-122.570;2022-08-03T00:56:24;101397.53;;;31.42;33.71
37832;BME280;23671;38.090;-122.570;2022-08-03T00:58:53;101403.22;;;31.41;33.15
37832;BME280;23671;38.090;-122.570;2022-08-03T01:01:23;101397.63;;;31.36;33.00
37832;BME280;23671;38.090;-122.570;2022-08-03T01:03:50;101402.50;;;31.33;32.94
37832;BME280;23671;38.090;-122.570;2022-08-03T01:06:21;101411.50;;;31.34;32.85
37832;BME280;23671;38.090;-122.570;2022-08-03T01:09:16;101406.66;;;31.24;32.69
37832;BME280;23671;38.090;-122.570;2022-08-03T01:12:02;101402.75;;;31.20;32.59
37832;BME280;23671;38.090;-122.570;2022-08-03T01:15:09;101403.50;;;31.16;32.74
37832;BME280;23671;38.090;-122.570;2022-08-03T01:18:07;101393.28;;;31.11;32.84
37832;BME280;23671;38.090;-122.570;2022-08-03T01:20:37;101396.97;;;31.05;32.68
37832;BME280;23671;38.090;-122.570;2022-08-03T01:23:34;101399.00;;;30.98;32.91
37832;BME280;23671;38.090;-122.570;2022-08-03T01:26:23;101397.81;;;30.94;32.79
37832;BME280;23671;38.090;-122.570;2022-08-03T01:31:58;101390.22;;;30.85;32.44
37832;BME280;23671;38.090;-122.570;2022-08-03T01:34:30;101398.84;;;30.82;32.88
37832;BME280;23671;38.090;-122.570;2022-08-03T01:36:59;101391.38;;;30.77;33.34
37832;BME280;23671;38.090;-122.570;2022-08-03T01:39:31;101386.41;;;30.74;32.08
37832;BME280;23671;38.090;-122.570;2022-08-03T01:42:02;101390.66;;;30.70;32.81
37832;BME280;23671;38.090;-122.570;2022-08-03T01:44:39;101380.72;;;30.64;33.25
37832;BME280;23671;38.090;-122.570;2022-08-03T01:47:07;101390.66;;;30.59;32.57
37832;BME280;23671;38.090;-122.570;2022-08-03T01:49:39;101393.50;;;30.52;32.85
37832;BME280;23671;38.090;-122.570;2022-08-03T01:52:10;101390.88;;;30.45;32.55
37832;BME280;23671;38.090;-122.570;2022-08-03T01:54:43;101382.84;;;30.39;32.18
37832;BME280;23671;38.090;-122.570;2022-08-03T01:57:11;101387.09;;;30.35;32.23
37832;BME280;23671;38.090;-122.570;2022-08-03T01:59:39;101386.72;;;30.31;32.05
37832;BME280;23671;38.090;-122.570;2022-08-03T02:02:09;101397.47;;;30.26;32.18
37832;BME280;23671;38.090;-122.570;2022-08-03T02:04:38;101396.88;;;30.24;32.58
37832;BME280;23671;38.090;-122.570;2022-08-03T02:07:08;101404.56;;;30.16;32.16
37832;BME280;23671;38.090;-122.570;2022-08-03T02:09:39;101405.00;;;30.13;32.85
37832;BME280;23671;38.090;-122.570;2022-08-03T02:12:11;101408.22;;;30.10;32.78
37832;BME280;23671;38.090;-122.570;2022-08-03T02:14:42;101406.41;;;30.04;32.74
37832;BME280;23671;38.090;-122.570;2022-08-03T02:17:10;101402.72;;;29.98;32.90
37832;BME280;23671;38.090;-122.570;2022-08-03T02:19:38;101409.34;;;29.91;32.65
37832;BME280;23671;38.090;-122.570;2022-08-03T02:22:10;101411.66;;;29.87;32.77
37832;BME280;23671;38.090;-122.570;2022-08-03T02:24:38;101413.44;;;29.82;32.68
37832;BME280;23671;38.090;-122.570;2022-08-03T02:27:11;101412.34;;;29.71;32.61
37832;BME280;23671;38.090;-122.570;2022-08-03T02:29:41;101410.25;;;29.67;33.02
37832;BME280;23671;38.090;-122.570;2022-08-03T02:32:15;101414.72;;;29.61;32.98
37832;BME280;23671;38.090;-122.570;2022-08-03T02:34:45;101406.63;;;29.54;33.51
37832;BME280;23671;38.090;-122.570;2022-08-03T02:37:13;101400.09;;;29.44;32.85
37832;BME280;23671;38.090;-122.570;2022-08-03T02:39:40;101405.59;;;29.37;32.92
37832;BME280;23671;38.090;-122.570;2022-08-03T02:42:10;101413.00;;;29.30;32.94
37832;BME280;23671;38.090;-122.570;2022-08-03T02:44:40;101410.34;;;29.24;33.14
37832;BME280;23671;38.090;-122.570;2022-08-03T02:47:13;101402.97;;;29.13;32.99
37832;BME280;23671;38.090;-122.570;2022-08-03T02:49:41;101408.44;;;29.06;32.74
37832;BME280;23671;38.090;-122.570;2022-08-03T02:52:09;101409.78;;;28.97;32.87
37832;BME280;23671;38.090;-122.570;2022-08-03T02:54:37;101420.16;;;28.89;32.67
37832;BME280;23671;38.090;-122.570;2022-08-03T02:57:06;101411.19;;;28.82;32.74
37832;BME280;23671;38.090;-122.570;2022-08-03T02:59:35;101415.91;;;28.68;32.93
37832;BME280;23671;38.090;-122.570;2022-08-03T03:02:03;101416.63;;;28.63;33.01
37832;BME280;23671;38.090;-122.570;2022-08-03T03:04:30;101414.41;;;28.54;32.64
37832;BME280;23671;38.090;-122.570;2022-08-03T03:06:58;101417.78;;;28.43;32.81
37832;BME280;23671;38.090;-122.570;2022-08-03T03:09:26;101418.28;;;28.33;33.12
37832;BME280;23671;38.090;-122.570;2022-08-03T03:11:53;101426.41;;;28.33;33.08
37832;BME280;23671;38.090;-122.570;2022-08-03T03:14:21;101420.84;;;28.22;33.05
37832;BME280;23671;38.090;-122.570;2022-08-03T03:16:48;101418.41;;;28.14;33.15
37832;BME280;23671;38.090;-122.570;2022-08-03T03:19:16;101427.84;;;28.11;33.39
37832;BME280;23671;38.090;-122.570;2022-08-03T03:21:45;101427.25;;;28.03;33.21
37832;BME280;23671;38.090;-122.570;2022-08-03T03:24:13;101438.97;;;27.97;33.30
37832;BME280;23671;38.090;-122.570;2022-08-03T03:26:41;101451.50;;;27.91;33.41
37832;BME280;23671;38.090;-122.570;2022-08-03T03:29:09;101442.34;;;27.85;33.74
37832;BME280;23671;38.090;-122.570;2022-08-03T03:31:36;101446.78;;;27.80;33.72
37832;BME280;23671;38.090;-122.570;2022-08-03T03:34:04;101448.66;;;27.79;33.74
37832;BME280;23671;38.090;-122.570;2022-08-03T03:36:31;101445.53;;;27.76;33.85
37832;BME280;23671;38.090;-122.570;2022-08-03T03:38:58;101454.75;;;27.68;34.00
37832;BME280;23671;38.090;-122.570;2022-08-03T03:41:25;101444.53;;;27.64;33.78
37832;BME280;23671;38.090;-122.570;2022-08-03T03:43:52;101445.00;;;27.54;33.66
37832;BME280;23671;38.090;-122.570;2022-08-03T03:46:19;101444.38;;;27.52;34.03
37832;BME280;23671;38.090;-122.570;2022-08-03T03:48:47;101446.91;;;27.47;33.61
37832;BME280;23671;38.090;-122.570;2022-08-03T03:51:14;101449.22;;;27.37;33.36
37832;BME280;23671;38.090;-122.570;2022-08-03T03:53:55;101450.69;;;27.33;33.64
37832;BME280;23671;38.090;-122.570;2022-08-03T03:56:23;101442.97;;;27.30;33.46
37832;BME280;23671;38.090;-122.570;2022-08-03T03:58:50;101438.78;;;27.28;33.61
37832;BME280;23671;38.090;-122.570;2022-08-03T04:01:17;101435.28;;;27.21;33.55
37832;BME280;23671;38.090;-122.570;2022-08-03T04:03:44;101427.75;;;27.16;33.69
37832;BME280;23671;38.090;-122.570;2022-08-03T04:06:12;101434.88;;;27.11;33.32
37832;BME280;23671;38.090;-122.570;2022-08-03T04:08:58;101435.31;;;27.01;33.74
37832;BME280;23671;38.090;-122.570;2022-08-03T04:11:54;101430.53;;;26.90;33.56
37832;BME280;23671;38.090;-122.570;2022-08-03T04:14:30;101435.13;;;26.83;33.48
37832;BME280;23671;38.090;-122.570;2022-08-03T04:17:02;101428.44;;;26.79;33.61
37832;BME280;23671;38.090;-122.570;2022-08-03T04:19:35;101425.28;;;26.69;33.75
37832;BME280;23671;38.090;-122.570;2022-08-03T04:22:06;101423.00;;;26.66;33.87
37832;BME280;23671;38.090;-122.570;2022-08-03T04:24:40;101428.22;;;26.61;33.79
37832;BME280;23671;38.090;-122.570;2022-08-03T04:27:11;101425.50;;;26.54;34.17
37832;BME280;23671;38.090;-122.570;2022-08-03T04:29:42;101427.78;;;26.44;34.04
37832;BME280;23671;38.090;-122.570;2022-08-03T04:32:11;101424.66;;;26.41;34.09
37832;BME280;23671;38.090;-122.570;2022-08-03T04:34:40;101435.31;;;26.36;34.20
37832;BME280;23671;38.090;-122.570;2022-08-03T04:37:11;101429.22;;;26.27;33.99
37832;BME280;23671;38.090;-122.570;2022-08-03T04:39:42;101434.66;;;26.27;34.34
37832;BME280;23671;38.090;-122.570;2022-08-03T04:42:11;101429.44;;;26.19;34.29
37832;BME280;23671;38.090;-122.570;2022-08-03T04:44:40;101430.88;;;26.08;34.07
37832;BME280;23671;38.090;-122.570;2022-08-03T04:47:08;101444.63;;;26.07;34.45
37832;BME280;23671;38.090;-122.570;2022-08-03T04:49:39;101451.22;;;25.98;34.48
37832;BME280;23671;38.090;-122.570;2022-08-03T04:52:09;101458.06;;;25.94;34.52
37832;BME280;23671;38.090;-122.570;2022-08-03T04:54:44;101459.94;;;25.87;34.32
37832;BME280;23671;38.090;-122.570;2022-08-03T04:57:11;101449.28;;;25.79;34.53
37832;BME280;23671;38.090;-122.570;2022-08-03T04:59:39;101446.34;;;25.74;34.49
37832;BME280;23671;38.090;-122.570;2022-08-03T05:02:06;101443.81;;;25.66;34.78
37832;BME280;23671;38.090;-122.570;2022-08-03T05:04:33;101445.25;;;25.62;34.56
37832;BME280;23671;38.090;-122.570;2022-08-03T05:07:00;101445.03;;;25.57;34.45
37832;BME280;23671;38.090;-122.570;2022-08-03T05:09:26;101439.59;;;25.50;34.89
37832;BME280;23671;38.090;-122.570;2022-08-03T05:11:53;101442.06;;;25.45;34.99
37832;BME280;23671;38.090;-122.570;2022-08-03T05:14:21;101442.88;;;25.39;34.94
37832;BME280;23671;38.090;-122.570;2022-08-03T05:16:48;101443.63;;;25.33;35.11
37832;BME280;23671;38.090;-122.570;2022-08-03T05:19:15;101444.44;;;25.27;35.08
37832;BME280;23671;38.090;-122.570;2022-08-03T05:21:42;101454.81;;;25.23;34.99
37832;BME280;23671;38.090;-122.570;2022-08-03T05:24:09;101454.38;;;25.20;35.07
37832;BME280;23671;38.090;-122.570;2022-08-03T05:26:36;101453.31;;;25.14;35.27
37832;BME280;23671;38.090;-122.570;2022-08-03T05:29:03;101452.19;;;25.09;34.92
37832;BME280;23671;38.090;-122.570;2022-08-03T05:31:30;101455.94;;;25.08;35.23
37832;BME280;23671;38.090;-122.570;2022-08-03T05:33:57;101458.59;;;25.01;35.28
37832;BME280;23671;38.090;-122.570;2022-08-03T05:36:24;101448.19;;;24.98;35.02
37832;BME280;23671;38.090;-122.570;2022-08-03T05:38:51;101460.84;;;24.91;35.19
37832;BME280;23671;38.090;-122.570;2022-08-03T05:41:19;101453.94;;;24.89;35.29
37832;BME280;23671;38.090;-122.570;2022-08-03T05:43:46;101449.97;;;24.85;35.28
37832;BME280;23671;38.090;-122.570;2022-08-03T05:46:13;101444.94;;;24.82;35.40
37832;BME280;23671;38.090;-122.570;2022-08-03T05:48:43;101442.19;;;24.75;35.68
37832;BME280;23671;38.090;-122.570;2022-08-03T05:51:10;101447.16;;;24.72;35.62
37832;BME280;23671;38.090;-122.570;2022-08-03T05:53:40;101445.66;;;24.69;35.60
37832;BME280;23671;38.090;-122.570;2022-08-03T05:56:07;101457.03;;;24.65;35.72
37832;BME280;23671;38.090;-122.570;2022-08-03T05:58:34;101456.78;;;24.60;35.59
37832;BME280;23671;38.090;-122.570;2022-08-03T06:01:01;101461.94;;;24.55;35.91
37832;BME280;23671;38.090;-122.570;2022-08-03T06:03:28;101459.81;;;24.50;35.85
37832;BME280;23671;38.090;-122.570;2022-08-03T06:05:55;101463.09;;;24.46;35.77
37832;BME280;23671;38.090;-122.570;2022-08-03T06:08:22;101458.09;;;24.43;35.91
37832;BME280;23671;38.090;-122.570;2022-08-03T06:10:50;101452.41;;;24.38;35.91
37832;BME280;23671;38.090;-122.570;2022-08-03T06:13:17;101445.94;;;24.32;35.83
37832;BME280;23671;38.090;-122.570;2022-08-03T06:15:44;101461.03;;;24.26;36.11
37832;BME280;23671;38.090;-122.570;2022-08-03T06:18:11;101461.44;;;24.23;35.92
37832;BME280;23671;38.090;-122.570;2022-08-03T06:20:38;101454.53;;;24.21;36.15
37832;BME280;23671;38.090;-122.570;2022-08-03T06:23:05;101467.13;;;24.14;36.06
37832;BME280;23671;38.090;-122.570;2022-08-03T06:25:32;101462.94;;;24.11;36.19
37832;BME280;23671;38.090;-122.570;2022-08-03T06:27:59;101450.88;;;24.07;36.29
37832;BME280;23671;38.090;-122.570;2022-08-03T06:30:27;101451.44;;;24.03;36.16
37832;BME280;23671;38.090;-122.570;2022-08-03T06:32:54;101449.28;;;23.98;36.32
37832;BME280;23671;38.090;-122.570;2022-08-03T06:35:21;101452.53;;;23.94;36.30
37832;BME280;23671;38.090;-122.570;2022-08-03T06:37:49;101453.75;;;23.91;36.15
37832;BME280;23671;38.090;-122.570;2022-08-03T06:40:19;101455.34;;;23.86;36.44
37832;BME280;23671;38.090;-122.570;2022-08-03T06:42:46;101459.94;;;23.85;36.45
37832;BME280;23671;38.090;-122.570;2022-08-03T06:45:13;101460.50;;;23.81;36.44
37832;BME280;23671;38.090;-122.570;2022-08-03T06:47:40;101465.25;;;23.79;36.47
37832;BME280;23671;38.090;-122.570;2022-08-03T06:50:08;101463.09;;;23.74;36.62
37832;BME280;23671;38.090;-122.570;2022-08-03T06:52:36;101465.34;;;23.71;36.67
37832;BME280;23671;38.090;-122.570;2022-08-03T06:55:04;101462.53;;;23.64;36.64
37832;BME280;23671;38.090;-122.570;2022-08-03T06:57:31;101456.91;;;23.59;36.75
37832;BME280;23671;38.090;-122.570;2022-08-03T06:59:58;101458.09;;;23.57;36.80
37832;BME280;23671;38.090;-122.570;2022-08-03T07:02:28;101468.63;;;23.52;36.81
37832;BME280;23671;38.090;-122.570;2022-08-03T07:04:55;101467.78;;;23.51;36.80
37832;BME280;23671;38.090;-122.570;2022-08-03T07:07:23;101462.97;;;23.47;36.91
37832;BME280;23671;38.090;-122.570;2022-08-03T07:09:50;101457.72;;;23.45;36.80
37832;BME280;23671;38.090;-122.570;2022-08-03T07:12:16;101464.72;;;23.39;36.88
37832;BME280;23671;38.090;-122.570;2022-08-03T07:14:44;101459.72;;;23.36;37.08
37832;BME280;23671;38.090;-122.570;2022-08-03T07:17:11;101478.28;;;23.31;37.13
37832;BME280;23671;38.090;-122.570;2022-08-03T07:19:38;101473.03;;;23.30;37.05
37832;BME280;23671;38.090;-122.570;2022-08-03T07:22:05;101474.28;;;23.27;37.11
37832;BME280;23671;38.090;-122.570;2022-08-03T07:24:32;101477.78;;;23.28;37.17
37832;BME280;23671;38.090;-122.570;2022-08-03T07:26:59;101486.44;;;23.23;37.17
37832;BME280;23671;38.090;-122.570;2022-08-03T07:29:26;101488.66;;;23.20;37.32
37832;BME280;23671;38.090;-122.570;2022-08-03T07:31:53;101495.44;;;23.16;37.32
37832;BME280;23671;38.090;-122.570;2022-08-03T07:34:19;101480.66;;;23.12;37.41
37832;BME280;23671;38.090;-122.570;2022-08-03T07:36:46;101481.69;;;23.11;37.44
37832;BME280;23671;38.090;-122.570;2022-08-03T07:39:13;101478.72;;;23.06;37.46
37832;BME280;23671;38.090;-122.570;2022-08-03T07:41:40;101474.50;;;23.03;37.33
37832;BME280;23671;38.090;-122.570;2022-08-03T07:44:07;101475.25;;;22.97;37.58
37832;BME280;23671;38.090;-122.570;2022-08-03T07:46:34;101479.97;;;22.95;37.71
37832;BME280;23671;38.090;-122.570;2022-08-03T07:49:01;101475.97;;;22.91;37.62
37832;BME280;23671;38.090;-122.570;2022-08-03T07:51:28;101481.34;;;22.91;37.70
37832;BME280;23671;38.090;-122.570;2022-08-03T07:53:55;101472.81;;;22.88;37.82
37832;BME280;23671;38.090;-122.570;2022-08-03T07:56:23;101473.00;;;22.86;37.68
37832;BME280;23671;38.090;-122.570;2022-08-03T07:58:51;101471.31;;;22.85;37.74
37832;BME280;23671;38.090;-122.570;2022-08-03T08:01:18;101466.69;;;22.79;37.82
37832;BME280;23671;38.090;-122.570;2022-08-03T08:03:49;101463.50;;;22.76;37.89
37832;BME280;23671;38.090;-122.570;2022-08-03T08:06:16;101469.25;;;22.73;37.91
37832;BME280;23671;38.090;-122.570;2022-08-03T08:08:43;101459.88;;;22.69;37.89
37832;BME280;23671;38.090;-122.570;2022-08-03T08:11:10;101459.88;;;22.69;38.05
37832;BME280;23671;38.090;-122.570;2022-08-03T08:13:37;101451.13;;;22.67;37.90
37832;BME280;23671;38.090;-122.570;2022-08-03T08:16:05;101456.38;;;22.60;38.14
37832;BME280;23671;38.090;-122.570;2022-08-03T08:18:32;101454.53;;;22.61;38.09
37832;BME280;23671;38.090;-122.570;2022-08-03T08:21:00;101450.53;;;22.56;38.17
37832;BME280;23671;38.090;-122.570;2022-08-03T08:23:28;101444.66;;;22.53;38.18
37832;BME280;23671;38.090;-122.570;2022-08-03T08:25:55;101432.69;;;22.55;38.16
37832;BME280;23671;38.090;-122.570;2022-08-03T08:28:22;101434.78;;;22.45;38.24
37832;BME280;23671;38.090;-122.570;2022-08-03T08:30:50;101430.44;;;22.44;38.26
37832;BME280;23671;38.090;-122.570;2022-08-03T08:33:17;101443.91;;;22.44;38.28
37832;BME280;23671;38.090;-122.570;2022-08-03T08:35:44;101440.69;;;22.41;38.24
37832;BME280;23671;38.090;-122.570;2022-08-03T08:38:11;101436.53;;;22.38;38.34
37832;BME280;23671;38.090;-122.570;2022-08-03T08:40:38;101439.22;;;22.38;38.32
37832;BME280;23671;38.090;-122.570;2022-08-03T08:43:07;101425.31;;;22.35;38.33
37832;BME280;23671;38.090;-122.570;2022-08-03T08:45:34;101422.78;;;22.33;38.33
37832;BME280;23671;38.090;-122.570;2022-08-03T08:48:02;101428.00;;;22.35;38.23
37832;BME280;23671;38.090;-122.570;2022-08-03T08:50:31;101438.25;;;22.31;38.33
37832;BME280;23671;38.090;-122.570;2022-08-03T08:53:02;101433.78;;;22.24;38.42
37832;BME280;23671;38.090;-122.570;2022-08-03T08:55:29;101429.75;;;22.20;38.58
37832;BME280;23671;38.090;-122.570;2022-08-03T08:58:04;101425.41;;;22.19;38.58
37832;BME280;23671;38.090;-122.570;2022-08-03T09:00:31;101446.28;;;22.17;38.52
37832;BME280;23671;38.090;-122.570;2022-08-03T09:02:58;101448.66;;;22.12;38.49
37832;BME280;23671;38.090;-122.570;2022-08-03T09:05:26;101442.63;;;22.10;38.52
37832;BME280;23671;38.090;-122.570;2022-08-03T09:07:53;101448.16;;;22.08;38.55
37832;BME280;23671;38.090;-122.570;2022-08-03T09:10:20;101447.88;;;22.03;38.78
37832;BME280;23671;38.090;-122.570;2022-08-03T09:12:49;101454.09;;;22.04;38.52
37832;BME280;23671;38.090;-122.570;2022-08-03T09:15:24;101450.56;;;22.03;38.71
37832;BME280;23671;38.090;-122.570;2022-08-03T09:17:53;101454.25;;;22.02;38.75
37832;BME280;23671;38.090;-122.570;2022-08-03T09:20:22;101447.88;;;22.03;38.57
37832;BME280;23671;38.090;-122.570;2022-08-03T09:22:53;101444.06;;;21.98;38.73
37832;BME280;23671;38.090;-122.570;2022-08-03T09:25:47;101441.69;;;21.95;38.80
37832;BME280;23671;38.090;-122.570;2022-08-03T09:28:16;101441.53;;;21.96;38.77
37832;BME280;23671;38.090;-122.570;2022-08-03T09:30:57;101433.28;;;21.98;38.67
37832;BME280;23671;38.090;-122.570;2022-08-03T09:33:25;101432.63;;;21.96;38.68
37832;BME280;23671;38.090;-122.570;2022-08-03T09:35:52;101432.31;;;21.91;38.71
37832;BME280;23671;38.090;-122.570;2022-08-03T09:38:23;101427.44;;;21.94;38.58
37832;BME280;23671;38.090;-122.570;2022-08-03T09:40:55;101420.75;;;21.90;38.78
37832;BME280;23671;38.090;-122.570;2022-08-03T09:43:22;101419.72;;;21.91;38.77
37832;BME280;23671;38.090;-122.570;2022-08-03T09:45:51;101421.06;;;21.87;38.56
37832;BME280;23671;38.090;-122.570;2022-08-03T09:48:29;101421.75;;;21.89;38.60
37832;BME280;23671;38.090;-122.570;2022-08-03T09:51:00;101438.41;;;21.85;38.83
37832;BME280;23671;38.090;-122.570;2022-08-03T09:53:28;101430.50;;;21.83;38.83
37832;BME280;23671;38.090;-122.570;2022-08-03T09:56:00;101435.56;;;21.78;38.71
37832;BME280;23671;38.090;-122.570;2022-08-03T09:58:29;101444.63;;;21.85;38.59
37832;BME280;23671;38.090;-122.570;2022-08-03T10:00:59;101436.91;;;21.74;38.79
37832;BME280;23671;38.090;-122.570;2022-08-03T10:03:29;101437.28;;;21.71;38.88
37832;BME280;23671;38.090;-122.570;2022-08-03T10:05:57;101431.25;;;21.69;38.76
37832;BME280;23671;38.090;-122.570;2022-08-03T10:08:24;101431.06;;;21.70;38.94
37832;BME280;23671;38.090;-122.570;2022-08-03T10:10:52;101429.38;;;21.69;38.94
37832;BME280;23671;38.090;-122.570;2022-08-03T10:13:23;101418.97;;;21.66;38.85
37832;BME280;23671;38.090;-122.570;2022-08-03T10:15:51;101418.13;;;21.66;38.81
37832;BME280;23671;38.090;-122.570;2022-08-03T10:18:18;101417.66;;;21.62;38.95
37832;BME280;23671;38.090;-122.570;2022-08-03T10:20:58;101419.88;;;21.59;38.94
37832;BME280;23671;38.090;-122.570;2022-08-03T10:23:33;101416.00;;;21.61;39.02
37832;BME280;23671;38.090;-122.570;2022-08-03T10:26:03;101418.16;;;21.58;38.89
37832;BME280;23671;38.090;-122.570;2022-08-03T10:28:40;101410.47;;;21.55;39.03
37832;BME280;23671;38.090;-122.570;2022-08-03T10:31:08;101417.34;;;21.57;38.96
37832;BME280;23671;38.090;-122.570;2022-08-03T10:33:40;101407.97;;;21.53;38.96
37832;BME280;23671;38.090;-122.570;2022-08-03T10:36:08;101404.81;;;21.50;39.01
37832;BME280;23671;38.090;-122.570;2022-08-03T10:38:51;101407.50;;;21.50;39.04
37832;BME280;23671;38.090;-122.570;2022-08-03T10:41:21;101408.19;;;21.44;39.00
37832;BME280;23671;38.090;-122.570;2022-08-03T10:44:11;101399.28;;;21.43;39.29
37832;BME280;23671;38.090;-122.570;2022-08-03T10:46:40;101402.66;;;21.37;39.19
37832;BME280;23671;38.090;-122.570;2022-08-03T10:49:11;101416.28;;;21.36;39.18
37832;BME280;23671;38.090;-122.570;2022-08-03T10:51:39;101418.28;;;21.34;39.58
37832;BME280;23671;38.090;-122.570;2022-08-03T10:54:06;101410.41;;;21.32;39.29
37832;BME280;23671;38.090;-122.570;2022-08-03T10:56:53;101401.50;;;21.32;39.22
37832;BME280;23671;38.090;-122.570;2022-08-03T11:02:21;101399.03;;;21.22;39.28
37832;BME280;23671;38.090;-122.570;2022-08-03T11:10:43;101393.34;;;21.17;39.51
37832;BME280;23671;38.090;-122.570;2022-08-03T11:13:17;101390.47;;;21.19;39.53
37832;BME280;23671;38.090;-122.570;2022-08-03T11:15:47;101391.19;;;21.13;39.52
37832;BME280;23671;38.090;-122.570;2022-08-03T11:18:15;101381.78;;;21.09;39.73
37832;BME280;23671;38.090;-122.570;2022-08-03T11:20:49;101375.75;;;21.07;39.83
37832;BME280;23671;38.090;-122.570;2022-08-03T11:23:19;101372.56;;;21.03;39.75
37832;BME280;23671;38.090;-122.570;2022-08-03T11:26:17;101357.31;;;21.04;39.62
37832;BME280;23671;38.090;-122.570;2022-08-03T11:28:47;101375.44;;;21.02;39.55
37832;BME280;23671;38.090;-122.570;2022-08-03T11:34:13;101378.59;;;20.97;39.80
37832;BME280;23671;38.090;-122.570;2022-08-03T11:39:47;101389.84;;;20.93;39.81
37832;BME280;23671;38.090;-122.570;2022-08-03T11:44:56;101379.97;;;20.85;39.86
37832;BME280;23671;38.090;-122.570;2022-08-03T11:47:26;101381.66;;;20.86;39.94
37832;BME280;23671;38.090;-122.570;2022-08-03T11:49:57;101378.31;;;20.84;40.03
37832;BME280;23671;38.090;-122.570;2022-08-03T11:52:33;101377.28;;;20.85;39.96
37832;BME280;23671;38.090;-122.570;2022-08-03T11:55:00;101380.81;;;20.86;39.73
37832;BME280;23671;38.090;-122.570;2022-08-03T11:57:33;101376.13;;;20.79;40.09
37832;BME280;23671;38.090;-122.570;2022-08-03T12:00:00;101365.88;;;20.75;39.94
37832;BME280;23671;38.090;-122.570;2022-08-03T12:02:27;101364.72;;;20.77;39.90
37832;BME280;23671;38.090;-122.570;2022-08-03T12:04:56;101361.38;;;20.75;40.12
37832;BME280;23671;38.090;-122.570;2022-08-03T12:07:25;101360.88;;;20.72;39.89
37832;BME280;23671;38.090;-122.570;2022-08-03T12:10:09;101354.00;;;20.69;39.93
37832;BME280;23671;38.090;-122.570;2022-08-03T12:12:37;101357.72;;;20.68;39.94
37832;BME280;23671;38.090;-122.570;2022-08-03T12:15:05;101359.06;;;20.64;40.09
37832;BME280;23671;38.090;-122.570;2022-08-03T12:17:36;101360.72;;;20.65;40.12
37832;BME280;23671;38.090;-122.570;2022-08-03T12:20:06;101364.41;;;20.64;40.09
37832;BME280;23671;38.090;-122.570;2022-08-03T12:22:38;101366.25;;;20.64;40.06
37832;BME280;23671;38.090;-122.570;2022-08-03T12:25:09;101360.22;;;20.62;40.11
37832;BME280;23671;38.090;-122.570;2022-08-03T12:27:45;101358.75;;;20.59;40.29
37832;BME280;23671;38.090;-122.570;2022-08-03T12:30:13;101363.25;;;20.59;40.29
37832;BME280;23671;38.090;-122.570;2022-08-03T12:32:43;101368.94;;;20.56;40.11
37832;BME280;23671;38.090;-122.570;2022-08-03T12:35:20;101364.78;;;20.53;40.30
37832;BME280;23671;38.090;-122.570;2022-08-03T12:37:49;101365.59;;;20.54;40.30
37832;BME280;23671;38.090;-122.570;2022-08-03T12:40:24;101361.91;;;20.55;40.09
37832;BME280;23671;38.090;-122.570;2022-08-03T12:42:54;101363.75;;;20.46;40.24
37832;BME280;23671;38.090;-122.570;2022-08-03T12:45:28;101359.25;;;20.47;40.29
37832;BME280;23671;38.090;-122.570;2022-08-03T12:48:01;101356.25;;;20.42;40.40
37832;BME280;23671;38.090;-122.570;2022-08-03T12:50:33;101355.41;;;20.41;40.55
37832;BME280;23671;38.090;-122.570;2022-08-03T12:53:03;101354.56;;;20.41;40.39
37832;BME280;23671;38.090;-122.570;2022-08-03T12:55:31;101345.66;;;20.40;40.47